Portada
METAR-TAF:

METAR-TAF

Aeropuertos :

Aeropuerto Civil de Amán

Amán, Jordania

latitud: 31-59N, longitud: 035-59E, altitud: 767 m

Observación

El informe se hizo hace 1 hora y 0 minutos, a las 08:00 UTC
Viento 14 kt del oeste
Temperatura 18°C
Humedad 52%
Presión 1017 hPa
Visibilidad 10 km o más
Cielo nuboso a una altura de 3000 ft

METAR: OJAM 250800Z 27014KT 9999 BKN030 18/08 Q1017 NOSIG

Hora: 12:00 (09:00 UTC)

Pronóstico

El informe se hizo hace 3 horas y 50 minutos, a las 05:10 UTC
Pronóstico válido del 25 a las 06 UTC al 26 a las 12 UTC
Viento 10 kt del oeste-suroeste
Visibilidad: 5000 m
Nubes dispersas a una altura de 3000 ft
Nubes dispersas a una altura de 3500 ft
calima
Temporalmente
del 25 a las 12 UTC al 25 a las 18 UTC
Viento 12 kt del oeste
Visibilidad: 5000 m
Escasas nubes a una altura de 2500 ft
calima

TAF: OJAM 250510Z 2506/2612 25010KT 5000 HZ SCT030 SCT035 TEMPO 2512/2518 26012KT 5000 HZ FEW025

Observaciones y pronósticos meteorológicos de más de 4000 aeropuertos (mensajes METAR y TAF).

Los puntos amarillos y rojos representan las estaciones disponibles.

Ponga el ratón en el punto deseado para ver el nombre de la estación.

Haga clic para ver las observaciones y los pronósticos meteorológicos.

Para cambiar el mapa : haga clic en los botones verdes con una cruz de color negro para hacer un zoom, en el botón verde con un guión para alejar o en las flechas verdes para mapas adyacentes.


METAR-TAF: